Time;durP1;ratioP1;P1;durP2;ratioP2;P2;SDS_P1;SDS_P2;PMS_P1;PMS_P2;Temp;Humidity;BMP_temperature;BMP_pressure;BME280_temperature;BME280_humidity;BME280_pressure;Samples;Min_cycle;Max_cycle;Signal;HPM_P1;HPM_P2
2022/01/31 00:02:16;;;;;;;14.40;4.40;;;;;;;1.66;69.62;97053.56;5074415;28;20060;-79
2022/01/31 00:04:44;;;;;;;8.38;4.40;;;;;;;1.74;70.19;97047.88;5074489;28;20056;-79
2022/01/31 00:07:12;;;;;;;9.15;4.30;;;;;;;1.85;71.12;97047.88;5075632;28;20067;-79
2022/01/31 00:09:42;;;;;;;13.20;5.13;;;;;;;1.93;69.96;97040.41;5078475;28;20056;-79
2022/01/31 00:12:13;;;;;;;7.82;3.55;;;;;;;1.91;69.40;97047.41;5076686;28;20052;-76
2022/01/31 00:14:44;;;;;;;11.43;4.10;;;;;;;1.88;69.53;97034.78;5074139;28;20048;-79
2022/01/31 00:17:12;;;;;;;14.00;4.28;;;;;;;1.89;69.82;97028.69;5073829;28;20052;-77
2022/01/31 00:19:41;;;;;;;8.75;3.88;;;;;;;1.91;70.21;97021.69;5074063;28;20045;-79
2022/01/31 00:22:11;;;;;;;10.55;4.13;;;;;;;1.96;70.19;97022.13;5074106;28;20049;-80
2022/01/31 00:24:39;;;;;;;7.30;3.72;;;;;;;2.06;70.90;97028.22;5073608;28;20056;-76
2022/01/31 00:27:09;;;;;;;9.25;3.65;;;;;;;2.13;70.20;97010.56;5073264;28;20056;-78
2022/01/31 00:29:37;;;;;;;17.13;4.22;;;;;;;2.14;69.70;97011.38;5073488;28;20044;-79
2022/01/31 00:32:07;;;;;;;9.25;4.20;;;;;;;2.18;71.62;97008.44;5073439;28;20060;-77
2022/01/31 00:34:34;;;;;;;17.35;8.85;;;;;;;2.20;70.45;97004.00;5073389;28;20059;-77
2022/01/31 00:37:02;;;;;;;16.83;7.65;;;;;;;2.23;70.35;96990.06;5073288;28;20521;-79
2022/01/31 00:39:33;;;;;;;15.68;7.60;;;;;;;2.24;69.62;96989.13;5073523;28;20052;-77
2022/01/31 00:42:02;;;;;;;17.50;6.40;;;;;;;2.26;70.34;96984.69;5073468;28;20052;-79
2022/01/31 00:44:39;;;;;;;15.35;5.68;;;;;;;2.28;69.42;96969.13;5073250;28;20049;-76
2022/01/31 00:47:17;;;;;;;12.30;5.63;;;;;;;2.24;71.41;96979.66;5073348;28;20055;-77
2022/01/31 00:49:50;;;;;;;15.13;6.82;;;;;;;2.30;72.05;96962.91;5073673;28;20056;-78
2022/01/31 00:52:18;;;;;;;;;;;;;;;2.34;71.17;96961.75;5073003;28;20087;-76
2022/01/31 00:54:47;;;;;;;13.65;7.20;;;;;;;2.28;71.30;96941.63;5073124;28;19924;-77
2022/01/31 00:57:14;;;;;;;16.17;7.68;;;;;;;2.29;70.59;96945.00;5073187;28;20557;-79
2022/01/31 00:59:42;;;;;;;14.38;6.22;;;;;;;2.18;69.21;96944.09;5073211;28;20426;-77
2022/01/31 01:02:11;;;;;;;15.20;6.00;;;;;;;2.13;71.11;96935.94;5073810;28;20057;-78
2022/01/31 01:04:40;;;;;;;13.00;5.10;;;;;;;2.14;70.51;96921.28;5073718;28;20055;-78
2022/01/31 01:07:07;;;;;;;10.70;4.75;;;;;;;2.13;69.60;96923.06;5072815;28;20055;-82
2022/01/31 01:09:37;;;;;;;10.52;5.25;;;;;;;2.18;72.00;96909.81;5073303;28;20466;-79
2022/01/31 01:12:05;;;;;;;9.45;4.95;;;;;;;2.23;71.97;96898.25;5073430;28;20110;-78
2022/01/31 01:14:33;;;;;;;10.32;4.68;;;;;;;2.28;71.63;96884.19;5073051;28;20509;-78
2022/01/31 01:17:00;;;;;;;12.20;5.15;;;;;;;2.26;70.21;96886.88;5071990;28;20048;-80
2022/01/31 01:19:29;;;;;;;14.57;5.93;;;;;;;2.19;69.67;96890.88;5072860;28;20178;-79
2022/01/31 01:21:58;;;;;;;15.65;5.00;;;;;;;2.14;69.68;96887.84;5072711;28;20048;-79
2022/01/31 01:24:25;;;;;;;8.85;5.32;;;;;;;2.11;70.37;96888.91;5072765;28;20056;-80
2022/01/31 01:26:54;;;;;;;14.35;6.03;;;;;;;2.18;71.87;96884.09;5072670;28;20056;-79
2022/01/31 01:29:21;;;;;;;8.48;5.50;;;;;;;2.24;72.51;96875.88;5072757;28;20055;-79
2022/01/31 01:31:49;;;;;;;12.73;5.65;;;;;;;2.29;71.08;96867.78;5072561;28;20044;-79
2022/01/31 01:34:17;;;;;;;15.90;6.97;;;;;;;2.29;70.57;96852.34;5072488;28;20056;-79
2022/01/31 01:36:47;;;;;;;44.80;18.70;;;;;;;2.24;69.37;96824.41;5073026;28;20064;-79
2022/01/31 01:39:14;;;;;;;30.58;13.63;;;;;;;2.15;69.42;96813.09;5072415;28;20048;-80
2022/01/31 01:41:43;;;;;;;23.13;10.13;;;;;;;2.08;69.51;96832.56;5072464;28;20056;-79
2022/01/31 01:44:10;;;;;;;22.08;8.48;;;;;;;2.07;69.93;96823.19;5072583;28;20114;-80
2022/01/31 01:46:38;;;;;;;16.52;7.35;;;;;;;2.12;71.00;96835.69;5072141;28;20052;-78
2022/01/31 01:49:07;;;;;;;14.52;7.60;;;;;;;2.19;72.03;96823.97;5072449;28;20053;-79
2022/01/31 01:51:34;;;;;;;16.30;6.30;;;;;;;2.23;71.06;96825.31;5072436;28;20506;-77
2022/01/31 01:54:03;;;;;;;14.00;7.20;;;;;;;2.26;71.34;96822.53;5072917;28;20044;-79
2022/01/31 01:56:30;;;;;;;19.95;7.50;;;;;;;2.32;70.84;96801.44;5072258;28;20053;-79
2022/01/31 01:59:04;;;;;;;12.82;5.55;;;;;;;2.34;70.11;96796.97;5072848;28;20044;-82
2022/01/31 02:01:31;;;;;;;16.15;5.97;;;;;;;2.36;70.16;96777.09;5072412;28;20056;-78
2022/01/31 02:03:59;;;;;;;10.48;5.00;;;;;;;2.42;70.39;96758.53;5076863;28;20056;-79
2022/01/31 02:06:26;;;;;;;15.38;5.43;;;;;;;2.48;71.72;96734.03;5076571;28;20064;-81
2022/01/31 02:08:55;;;;;;;17.40;6.82;;;;;;;2.51;70.98;96718.31;5078233;28;20052;-82
2022/01/31 02:11:24;;;;;;;18.83;6.10;;;;;;;2.58;72.80;96685.16;5078135;28;20056;-81
2022/01/31 02:13:52;;;;;;;14.85;5.47;;;;;;;2.56;70.31;96680.16;5077311;28;20048;-79
2022/01/31 02:16:19;;;;;;;18.52;5.32;;;;;;;2.44;69.37;96673.44;5077255;28;20063;-81
2022/01/31 02:18:48;;;;;;;20.27;5.55;;;;;;;2.33;69.61;96661.47;5076978;28;20504;-78
2022/01/31 02:21:18;;;;;;;16.15;5.20;;;;;;;2.27;69.56;96659.41;5077541;28;20055;-81
2022/01/31 02:23:45;;;;;;;12.10;4.20;;;;;;;2.22;69.81;96653.84;5077228;28;20052;-81
2022/01/31 02:26:13;;;;;;;9.95;4.63;;;;;;;2.21;70.02;96636.78;5076838;28;20057;-82
2022/01/31 02:28:41;;;;;;;13.35;4.80;;;;;;;2.21;69.73;96647.06;5076888;28;20395;-79
2022/01/31 02:31:09;;;;;;;14.27;5.22;;;;;;;2.21;70.06;96645.31;5077425;28;20072;-80
2022/01/31 02:33:37;;;;;;;8.00;4.22;;;;;;;2.25;71.11;96643.28;5077070;28;20057;-79
2022/01/31 02:36:06;;;;;;;10.38;5.30;;;;;;;2.34;71.15;96647.69;5076452;28;20370;-79
2022/01/31 02:38:35;;;;;;;14.77;6.05;;;;;;;2.42;71.39;96619.50;5077013;28;20059;-81
2022/01/31 02:41:02;;;;;;;12.05;5.45;;;;;;;2.45;70.70;96583.22;5076967;28;20515;-80
2022/01/31 02:43:31;;;;;;;17.13;6.07;;;;;;;2.41;70.43;96589.56;5076214;28;20495;-80
2022/01/31 02:46:00;;;;;;;15.48;4.38;;;;;;;2.40;70.17;96559.59;5076731;28;20055;-78
2022/01/31 02:48:31;;;;;;;12.32;4.90;;;;;;;2.41;69.96;96543.22;5075801;28;20074;-78
2022/01/31 02:50:59;;;;;;;9.70;4.70;;;;;;;2.36;69.87;96581.44;5075717;28;20049;-77
2022/01/31 02:53:29;;;;;;;15.70;4.75;;;;;;;2.37;70.29;96590.78;5075570;28;20059;-79
2022/01/31 02:56:00;;;;;;;11.80;4.88;;;;;;;2.40;71.00;96581.97;5075224;28;20417;-78
2022/01/31 02:58:29;;;;;;;10.57;5.07;;;;;;;2.48;70.97;96582.13;5075653;28;20056;-79
2022/01/31 03:00:58;;;;;;;14.07;4.63;;;;;;;2.52;70.31;96572.41;5075525;28;20064;-79
2022/01/31 03:03:27;;;;;;;8.88;4.82;;;;;;;2.58;70.86;96556.38;5075658;28;20045;-79
2022/01/31 03:05:55;;;;;;;13.52;5.03;;;;;;;2.63;70.80;96539.59;5075695;28;20055;-78
2022/01/31 03:08:23;;;;;;;11.13;4.82;;;;;;;2.66;70.74;96541.09;5076150;28;20056;-77
2022/01/31 03:10:51;;;;;;;8.25;4.28;;;;;;;2.75;71.79;96526.59;5075777;28;20044;-78
2022/01/31 03:13:20;;;;;;;15.40;5.22;;;;;;;2.79;70.74;96521.03;5075357;28;20052;-78
2022/01/31 03:15:49;;;;;;;9.90;4.35;;;;;;;2.82;71.03;96518.22;5075098;28;20059;-80
2022/01/31 03:18:16;;;;;;;16.52;5.78;;;;;;;2.88;71.72;96527.16;5075604;28;20052;-77
2022/01/31 03:20:44;;;;;;;10.48;4.68;;;;;;;2.95;72.90;96506.81;5075371;28;20055;-78
2022/01/31 03:23:13;;;;;;;10.57;5.63;;;;;;;3.01;73.16;96483.88;5075981;28;20048;-78
2022/01/31 03:25:40;;;;;;;12.65;5.75;;;;;;;3.09;74.14;96478.84;5075722;28;20045;-79
2022/01/31 03:28:08;;;;;;;13.52;4.07;;;;;;;3.16;73.70;96473.97;5075769;28;20056;-78
2022/01/31 03:30:37;;;;;;;15.27;4.90;;;;;;;3.23;74.42;96459.56;5075749;28;20048;-78
2022/01/31 03:33:04;;;;;;;14.65;4.30;;;;;;;3.25;74.14;96457.66;5075570;28;20048;-81
2022/01/31 03:35:32;;;;;;;9.82;4.05;;;;;;;3.24;73.12;96462.97;5075838;28;20521;-76
2022/01/31 03:37:59;;;;;;;9.70;4.03;;;;;;;3.25;72.15;96446.53;5076037;28;20052;-79
2022/01/31 03:40:27;;;;;;;15.63;4.70;;;;;;;3.25;72.02;96442.19;5076257;28;20056;-78
2022/01/31 03:42:54;;;;;;;12.13;4.72;;;;;;;3.26;72.14;96428.34;5075999;28;20052;-78
2022/01/31 03:45:22;;;;;;;13.27;5.07;;;;;;;3.26;71.84;96438.66;5075913;28;20048;-80
2022/01/31 03:47:51;;;;;;;12.45;4.50;;;;;;;3.26;72.15;96422.41;5075088;28;20069;-80
2022/01/31 03:50:19;;;;;;;13.27;4.30;;;;;;;3.26;72.24;96414.66;5075348;28;20391;-79
2022/01/31 03:52:48;;;;;;;14.93;4.85;;;;;;;3.27;73.10;96401.63;5076579;28;20048;-78
2022/01/31 03:55:16;;;;;;;14.40;4.88;;;;;;;3.30;73.91;96388.47;5082886;28;20051;-80
2022/01/31 03:57:44;;;;;;;10.73;4.25;;;;;;;3.35;74.52;96382.88;5082551;28;20059;-78
2022/01/31 04:00:14;;;;;;;9.68;4.68;;;;;;;3.40;73.51;96379.88;5078312;28;20048;-79
2022/01/31 04:02:43;;;;;;;16.80;4.93;;;;;;;3.40;73.35;96383.25;5075471;28;20498;-79
2022/01/31 04:05:12;;;;;;;13.88;4.38;;;;;;;3.44;74.79;96378.63;5075507;28;20052;-77
2022/01/31 04:07:40;;;;;;;14.00;4.18;;;;;;;3.46;73.11;96405.09;5076095;28;20048;-79
2022/01/31 04:10:08;;;;;;;13.43;4.88;;;;;;;3.46;72.68;96418.00;5080904;28;20054;-79
2022/01/31 04:12:36;;;;;;;8.23;3.75;;;;;;;3.47;73.48;96417.00;5077544;28;20049;-79
2022/01/31 04:15:04;;;;;;;12.85;5.20;;;;;;;3.50;72.60;96403.84;5076202;28;20399;-79
2022/01/31 04:17:33;;;;;;;10.80;4.00;;;;;;;3.53;73.18;96406.13;5075097;28;20490;-76
2022/01/31 04:20:00;;;;;;;7.32;3.90;;;;;;;3.55;72.97;96399.06;5075515;28;20048;-79
2022/01/31 04:22:32;;;;;;;9.68;4.28;;;;;;;3.57;71.92;96391.19;5075229;28;20049;-79
2022/01/31 04:25:03;;;;;;;11.35;3.92;;;;;;;3.59;72.36;96395.25;5075541;28;20055;-77
2022/01/31 04:27:43;;;;;;;12.52;4.15;;;;;;;3.61;73.13;96395.13;5075359;28;20045;-79
2022/01/31 04:30:13;;;;;;;14.82;4.55;;;;;;;3.62;71.96;96392.38;5075605;28;20044;-78
2022/01/31 04:32:40;;;;;;;12.85;4.75;;;;;;;3.58;70.84;96379.91;5075224;28;20497;-78
2022/01/31 04:35:08;;;;;;;12.80;4.38;;;;;;;3.56;70.82;96379.25;5075749;28;20060;-78
2022/01/31 04:37:38;;;;;;;7.82;4.18;;;;;;;3.57;70.17;96362.84;5074995;28;20090;-79
2022/01/31 04:40:13;;;;;;;14.27;4.85;;;;;;;3.60;72.15;96362.53;5075132;28;20045;-78
2022/01/31 04:42:42;;;;;;;11.38;4.63;;;;;;;3.62;71.59;96363.19;5075272;28;20468;-79
2022/01/31 04:45:11;;;;;;;12.38;5.22;;;;;;;3.64;71.82;96348.41;5075052;28;20048;-78
2022/01/31 04:47:38;;;;;;;13.52;5.18;;;;;;;3.67;72.11;96337.78;5074561;28;20044;-79
2022/01/31 04:50:07;;;;;;;10.13;4.25;;;;;;;3.68;71.15;96344.56;5074174;28;20052;-77
2022/01/31 04:52:34;;;;;;;12.57;4.57;;;;;;;3.66;70.75;96326.66;5075090;28;20044;-80
2022/01/31 04:55:03;;;;;;;10.68;4.63;;;;;;;3.66;71.47;96321.50;5074765;28;20422;-78
2022/01/31 04:57:31;;;;;;;8.05;4.32;;;;;;;3.65;71.20;96319.88;5074390;28;20413;-79
2022/01/31 04:59:58;;;;;;;9.70;4.32;;;;;;;3.64;69.92;96307.13;5074553;28;20391;-79
2022/01/31 05:02:26;;;;;;;13.88;4.75;;;;;;;3.62;70.20;96298.72;5075045;28;20049;-78
2022/01/31 05:04:54;;;;;;;11.55;4.65;;;;;;;3.61;70.64;96285.03;5074349;28;20228;-83
2022/01/31 05:07:22;;;;;;;11.85;4.47;;;;;;;3.63;71.30;96284.84;5073425;28;20048;-79
2022/01/31 05:09:50;;;;;;;11.88;4.78;;;;;;;3.64;71.65;96266.66;5073636;28;20460;-77
2022/01/31 05:12:19;;;;;;;15.07;5.65;;;;;;;3.65;71.73;96263.13;5074110;28;20502;-79
2022/01/31 05:14:46;;;;;;;15.23;4.75;;;;;;;3.68;71.36;96255.09;5074543;28;20056;-83
2022/01/31 05:17:14;;;;;;;11.90;4.18;;;;;;;3.67;69.80;96239.75;5073768;28;20066;-77
2022/01/31 05:19:41;;;;;;;7.70;4.10;;;;;;;3.64;70.84;96232.31;5074236;28;20053;-79
2022/01/31 05:22:09;;;;;;;8.23;3.83;;;;;;;3.63;70.82;96236.69;5074145;28;20122;-79
2022/01/31 05:24:36;;;;;;;13.07;4.22;;;;;;;3.64;70.24;96229.75;5073985;28;20048;-77
2022/01/31 05:27:04;;;;;;;10.73;3.58;;;;;;;3.65;71.10;96208.97;5074120;28;20045;-79
2022/01/31 05:29:33;;;;;;;10.52;3.80;;;;;;;3.67;70.06;96201.06;5073507;28;20055;-79
2022/01/31 05:32:01;;;;;;;8.30;4.15;;;;;;;3.68;71.05;96195.78;5074462;28;20063;-78
2022/01/31 05:34:28;;;;;;;12.10;5.40;;;;;;;3.68;70.76;96167.41;5074102;28;20551;-79
2022/01/31 05:36:56;;;;;;;10.55;4.60;;;;;;;3.69;70.03;96168.19;5072760;28;20049;-79
2022/01/31 05:39:25;;;;;;;11.65;4.97;;;;;;;3.70;70.95;96162.91;5074148;28;20052;-79
2022/01/31 05:41:54;;;;;;;6.30;2.97;;;;;;;3.72;69.74;96166.13;5074351;28;20055;-78
2022/01/31 05:44:23;;;;;;;13.30;3.85;;;;;;;3.74;69.18;96149.69;5074170;28;20048;-81
2022/01/31 05:46:52;;;;;;;12.25;4.53;;;;;;;3.75;69.86;96141.00;5073768;28;20052;-79
2022/01/31 05:49:20;;;;;;;10.25;2.95;;;;;;;3.76;68.85;96142.59;5074566;28;20475;-78
2022/01/31 05:51:54;;;;;;;7.55;2.90;;;;;;;3.78;70.36;96149.22;5074296;28;20064;-78
2022/01/31 05:54:22;;;;;;;14.88;6.72;;;;;;;3.82;70.67;96134.28;5074505;28;20495;-79
2022/01/31 05:56:50;;;;;;;7.18;2.85;;;;;;;3.87;70.39;96114.81;5074762;28;20041;-77
2022/01/31 05:59:18;;;;;;;10.68;2.90;;;;;;;3.88;69.26;96124.16;5074017;28;20490;-79
2022/01/31 06:01:45;;;;;;;10.13;3.97;;;;;;;3.90;69.30;96126.59;5074487;28;20044;-77
2022/01/31 06:04:14;;;;;;;8.48;3.38;;;;;;;3.92;70.41;96116.94;5074154;28;20049;-80
2022/01/31 06:06:42;;;;;;;6.53;3.35;;;;;;;3.94;69.99;96096.94;5074341;28;20469;-77
2022/01/31 06:09:15;;;;;;;;;;;;;;;4.00;70.39;96095.50;5074422;28;20080;-77
2022/01/31 06:11:44;;;;;;;7.65;3.03;;;;;;;3.98;69.99;96100.84;5074146;28;19944;-77
2022/01/31 06:14:12;;;;;;;7.93;2.85;;;;;;;3.99;70.00;96079.22;5075453;28;20059;-77
2022/01/31 06:16:39;;;;;;;6.03;2.38;;;;;;;3.98;68.58;96067.31;5073551;28;20044;-77
2022/01/31 06:19:07;;;;;;;9.20;3.40;;;;;;;3.98;68.29;96056.97;5074570;28;20049;-78
2022/01/31 06:21:36;;;;;;;6.90;3.38;;;;;;;4.01;68.91;96058.44;5076338;28;20044;-78
2022/01/31 06:24:09;;;;;;;9.18;3.03;;;;;;;4.03;68.95;96044.41;5067179;28;20071;-78
2022/01/31 06:26:37;;;;;;;11.55;3.17;;;;;;;4.07;69.52;96045.72;5056487;28;20052;-79
2022/01/31 06:29:05;;;;;;;10.27;2.70;;;;;;;4.10;69.46;96057.50;5073655;28;20053;-78
2022/01/31 06:31:33;;;;;;;9.93;3.10;;;;;;;4.10;69.46;96052.34;5073867;28;20056;-79
2022/01/31 06:34:02;;;;;;;13.45;3.13;;;;;;;4.12;69.98;96051.22;5074012;28;20045;-79
2022/01/31 06:36:30;;;;;;;9.55;3.00;;;;;;;4.13;69.58;96033.94;5074704;28;20049;-79
2022/01/31 06:38:59;;;;;;;9.50;3.00;;;;;;;4.13;69.94;96045.09;5074515;28;20102;-77
2022/01/31 06:41:28;;;;;;;8.75;3.05;;;;;;;4.14;70.03;96035.59;5074454;28;20052;-78
2022/01/31 06:43:56;;;;;;;13.13;4.18;;;;;;;4.13;70.19;96036.53;5074366;28;20081;-76
2022/01/31 06:46:24;;;;;;;11.45;2.95;;;;;;;4.11;70.35;96026.38;5073878;28;20063;-75
2022/01/31 06:48:52;;;;;;;13.63;3.97;;;;;;;4.11;70.34;96020.38;5076272;28;20075;-78
2022/01/31 06:51:20;;;;;;;8.48;3.55;;;;;;;4.08;70.47;96016.34;5077829;28;20052;-80
2022/01/31 06:53:55;;;;;;;8.18;3.13;;;;;;;4.06;70.95;96023.44;5079510;28;20044;-77
2022/01/31 06:56:29;;;;;;;6.18;3.22;;;;;;;4.03;71.46;96016.03;5077156;28;20053;-76
2022/01/31 06:58:57;;;;;;;10.13;4.00;;;;;;;4.00;71.54;96026.66;5077643;28;20044;-77
2022/01/31 07:01:25;;;;;;;10.85;3.13;;;;;;;3.96;71.83;96030.50;5077518;28;20044;-80
2022/01/31 07:03:54;;;;;;;8.85;3.05;;;;;;;3.92;71.37;96040.31;5078890;28;20055;-78
2022/01/31 07:06:23;;;;;;;9.82;2.90;;;;;;;3.91;71.87;96035.31;5073131;28;20060;-78
2022/01/31 07:08:52;;;;;;;7.60;2.75;;;;;;;3.88;71.96;96035.63;5074135;28;20122;-78
2022/01/31 07:11:23;;;;;;;7.50;2.88;;;;;;;3.84;72.05;96045.44;5059579;28;20049;-78
2022/01/31 07:14:01;;;;;;;8.45;3.25;;;;;;;3.83;73.04;96032.72;5077312;28;20044;-76
2022/01/31 07:16:31;;;;;;;6.80;2.83;;;;;;;3.80;72.48;96038.16;5077189;28;20090;-79
2022/01/31 07:19:04;;;;;;;7.95;3.13;;;;;;;3.76;72.87;96037.69;5077044;28;20059;-77
2022/01/31 07:21:37;;;;;;;6.15;2.92;;;;;;;3.76;73.65;96026.53;5077014;28;20052;-77
2022/01/31 07:24:18;;;;;;;9.38;3.08;;;;;;;3.74;74.21;96044.75;5057272;28;20565;-78
2022/01/31 07:26:47;;;;;;;8.40;4.15;;;;;;;3.72;73.75;96044.91;5057204;28;20518;-78
2022/01/31 07:29:16;;;;;;;7.45;3.63;;;;;;;3.68;73.44;96047.94;5056897;28;20053;-77
2022/01/31 07:31:45;;;;;;;6.90;3.35;;;;;;;3.63;74.15;96052.72;5068295;28;20575;-76
2022/01/31 07:34:14;;;;;;;3.88;3.28;;;;;;;3.58;73.65;96045.44;5077253;28;20052;-81
2022/01/31 07:36:42;;;;;;;7.43;3.42;;;;;;;3.55;73.87;96050.91;5076685;28;20048;-83
2022/01/31 07:39:10;;;;;;;7.20;3.20;;;;;;;3.54;74.31;96054.44;5076860;28;20079;-78
2022/01/31 07:41:41;;;;;;;6.50;3.50;;;;;;;3.53;74.94;96047.69;5076989;28;20080;-78
2022/01/31 07:44:09;;;;;;;6.30;3.70;;;;;;;3.53;75.04;96046.88;5076978;28;20049;-78
2022/01/31 07:46:38;;;;;;;11.98;5.07;;;;;;;3.51;75.07;96047.03;5080912;28;20397;-78
2022/01/31 07:49:07;;;;;;;7.70;3.15;;;;;;;3.50;75.29;96040.25;5078851;28;20186;-81
2022/01/31 07:51:38;;;;;;;10.43;4.38;;;;;;;3.45;74.52;96034.72;5078856;28;20055;-79
2022/01/31 07:54:08;;;;;;;7.57;3.60;;;;;;;3.45;75.03;96042.47;5080475;28;20059;-81
2022/01/31 07:56:37;;;;;;;14.48;5.55;;;;;;;3.44;74.87;96028.75;5080237;28;20049;-80
2022/01/31 07:59:06;;;;;;;10.85;4.10;;;;;;;3.43;75.10;96028.91;5080542;28;20045;-80
2022/01/31 08:01:34;;;;;;;9.45;3.78;;;;;;;3.43;75.44;96021.16;5077871;28;20067;-79
2022/01/31 08:04:03;;;;;;;8.10;3.70;;;;;;;3.42;75.66;96024.72;5077930;28;20055;-78
2022/01/31 08:06:31;;;;;;;8.25;4.20;;;;;;;3.42;75.91;96027.31;5079008;28;20399;-78
2022/01/31 08:09:00;;;;;;;11.30;4.63;;;;;;;3.42;75.85;96032.47;5080588;28;20067;-80
2022/01/31 08:11:32;;;;;;;6.13;3.70;;;;;;;3.40;75.33;96017.13;5079313;28;20059;-76
2022/01/31 08:14:04;;;;;;;6.72;3.13;;;;;;;3.38;74.96;96018.25;5079474;28;20083;-79
2022/01/31 08:16:33;;;;;;;5.43;2.95;;;;;;;3.33;75.18;96025.63;5076981;28;20045;-79
2022/01/31 08:19:05;;;;;;;5.90;3.00;;;;;;;3.33;75.50;96025.63;5075989;28;20411;-77
2022/01/31 08:21:54;;;;;;;5.05;3.65;;;;;;;3.35;75.84;96031.44;5076076;28;20105;-78
2022/01/31 08:24:21;;;;;;;9.27;3.03;;;;;;;3.35;76.09;96023.72;5074960;28;20044;-76
2022/01/31 08:26:55;;;;;;;5.38;2.80;;;;;;;3.32;76.26;96014.50;5074254;28;20044;-76
2022/01/31 08:29:28;;;;;;;5.82;3.28;;;;;;;3.27;76.21;96011.56;5075046;28;20048;-77
2022/01/31 08:32:06;;;;;;;6.10;3.03;;;;;;;3.25;75.98;96029.75;5074852;28;20091;-78
2022/01/31 08:37:21;;;;;;;4.60;2.70;;;;;;;3.17;76.43;96036.63;5074633;28;20055;-78
2022/01/31 08:39:49;;;;;;;8.00;3.35;;;;;;;3.16;76.77;96035.00;5074719;28;20047;-77
2022/01/31 08:42:17;;;;;;;5.05;3.42;;;;;;;3.16;76.23;96035.81;5074822;28;20045;-79
2022/01/31 08:44:47;;;;;;;8.13;3.55;;;;;;;3.16;77.11;96022.94;5074670;28;20048;-78
2022/01/31 08:47:14;;;;;;;5.35;3.25;;;;;;;3.17;76.61;96016.81;5074379;28;20430;-77
2022/01/31 08:49:44;;;;;;;5.10;3.15;;;;;;;3.18;76.96;96026.16;5074280;28;20048;-78
2022/01/31 08:52:11;;;;;;;5.40;3.75;;;;;;;3.19;76.68;96019.22;5075512;28;20052;-80
2022/01/31 08:54:40;;;;;;;6.50;3.25;;;;;;;3.20;77.30;96023.44;5078008;28;20468;-79
2022/01/31 08:57:08;;;;;;;6.07;2.85;;;;;;;3.22;77.15;96026.69;5077392;28;20053;-79
2022/01/31 08:59:42;;;;;;;4.13;2.83;;;;;;;3.22;76.78;96022.34;5077164;28;20045;-79
2022/01/31 09:02:14;;;;;;;4.03;2.55;;;;;;;3.21;76.67;96027.63;5076680;28;20074;-76
2022/01/31 09:04:47;;;;;;;3.13;2.65;;;;;;;3.19;76.75;96027.81;5077698;28;20052;-80
2022/01/31 09:07:18;;;;;;;5.18;2.33;;;;;;;3.19;76.88;96032.94;5077622;28;20105;-79
2022/01/31 09:09:49;;;;;;;4.93;2.78;;;;;;;3.19;77.48;96027.81;5077003;28;20044;-78
2022/01/31 09:12:17;;;;;;;3.88;2.38;;;;;;;3.21;76.99;96022.47;5077346;28;20059;-83
2022/01/31 09:14:45;;;;;;;5.97;2.38;;;;;;;3.21;76.83;96032.78;5081064;28;20068;-85
2022/01/31 09:17:13;;;;;;;3.85;1.77;;;;;;;3.22;77.53;96035.22;5081814;28;20052;-86
2022/01/31 09:19:41;;;;;;;2.92;1.85;;;;;;;3.24;77.99;96032.50;5082321;28;20051;-86
2022/01/31 09:22:09;;;;;;;4.40;2.30;;;;;;;3.26;77.83;96026.22;5082886;28;20055;-85
2022/01/31 09:24:40;;;;;;;3.70;1.92;;;;;;;3.29;77.56;96015.59;5080832;28;20059;-80
2022/01/31 09:27:10;;;;;;;3.15;2.30;;;;;;;3.35;77.76;96010.84;5082362;28;20048;-81
2022/01/31 09:29:40;;;;;;;3.20;1.92;;;;;;;3.40;77.99;95990.53;5081212;28;20448;-83
2022/01/31 09:32:10;;;;;;;2.17;1.75;;;;;;;3.42;77.41;95998.94;5079156;28;20048;-79
2022/01/31 09:34:37;;;;;;;2.90;2.28;;;;;;;3.45;77.42;96007.16;5078598;28;20048;-81
2022/01/31 09:37:05;;;;;;;3.00;2.20;;;;;;;3.51;77.42;96003.97;5078384;28;20055;-79
2022/01/31 09:39:34;;;;;;;6.85;3.17;;;;;;;3.56;77.78;96007.88;5078766;28;20044;-78
2022/01/31 09:42:10;;;;;;;4.38;2.55;;;;;;;3.58;77.98;95996.44;5078500;28;20044;-78
2022/01/31 09:44:48;;;;;;;4.30;2.28;;;;;;;3.59;77.75;96002.44;5077229;28;20048;-82
2022/01/31 09:47:23;;;;;;;3.10;1.88;;;;;;;3.60;77.73;95997.09;5077511;28;20048;-80
2022/01/31 09:49:51;;;;;;;4.30;2.20;;;;;;;3.62;77.84;96000.34;5077018;28;20052;-78
2022/01/31 09:52:19;;;;;;;2.63;1.98;;;;;;;3.66;77.39;95996.50;5077838;28;20044;-78
2022/01/31 09:54:48;;;;;;;7.82;2.70;;;;;;;3.65;77.73;95989.72;5077214;28;20052;-75
2022/01/31 09:57:18;;;;;;;4.35;1.73;;;;;;;3.66;78.10;95996.50;5074724;28;20080;-77
2022/01/31 09:59:46;;;;;;;4.97;2.30;;;;;;;3.70;78.30;95997.81;5073878;28;20494;-77
2022/01/31 10:02:15;;;;;;;2.53;2.25;;;;;;;3.70;77.87;95995.22;5077128;28;20044;-79
2022/01/31 10:04:45;;;;;;;4.20;2.25;;;;;;;3.72;77.84;95995.88;5078677;28;20517;-76
2022/01/31 10:07:14;;;;;;;6.03;2.40;;;;;;;3.72;77.84;95997.66;5078129;28;20422;-80
2022/01/31 10:09:43;;;;;;;4.68;3.10;;;;;;;3.72;77.84;96001.03;5078978;28;20049;-79
2022/01/31 10:12:26;;;;;;;3.38;1.90;;;;;;;3.72;77.37;96000.25;5078509;28;20477;-77
2022/01/31 10:17:42;;;;;;;4.65;2.15;;;;;;;3.72;77.16;96006.22;5078836;28;20053;-81
2022/01/31 10:20:23;;;;;;;4.50;2.60;;;;;;;3.70;77.84;96015.06;5078333;28;20135;-79
2022/01/31 10:22:50;;;;;;;3.08;1.60;;;;;;;3.72;77.77;96006.22;5077554;28;20060;-80
2022/01/31 10:25:20;;;;;;;4.88;2.08;;;;;;;3.75;77.90;96007.66;5081739;28;20053;-81
2022/01/31 10:28:11;;;;;;;4.05;2.10;;;;;;;3.75;77.20;96002.50;5082180;28;20094;-80
2022/01/31 10:30:41;;;;;;;4.15;1.90;;;;;;;3.76;77.11;96006.72;5082930;28;20063;-78
2022/01/31 10:33:10;;;;;;;4.78;1.70;;;;;;;3.75;77.02;95994.75;5080188;28;20052;-80
2022/01/31 10:35:39;;;;;;;3.15;2.13;;;;;;;3.78;77.78;95998.81;5078653;28;20087;-75
2022/01/31 10:38:11;;;;;;;2.67;1.48;;;;;;;3.79;77.49;95995.28;5077857;28;20093;-77
2022/01/31 10:44:13;;;;;;;6.35;2.05;;;;;;;3.80;77.76;95984.78;5078353;28;20052;-77
2022/01/31 10:52:26;;;;;;;2.95;1.83;;;;;;;3.97;77.63;95967.59;5078255;28;20052;-80
2022/01/31 10:54:55;;;;;;;4.32;1.90;;;;;;;4.01;77.42;95966.34;5078849;28;20514;-79
2022/01/31 10:57:23;;;;;;;2.65;1.80;;;;;;;4.02;76.88;95965.34;5078623;28;20056;-79
2022/01/31 11:00:00;;;;;;;3.17;1.77;;;;;;;4.03;76.32;95961.81;5079460;28;20112;-77
2022/01/31 11:02:29;;;;;;;6.90;2.33;;;;;;;4.05;76.95;95965.06;5078422;28;20497;-77
2022/01/31 11:04:57;;;;;;;5.10;1.67;;;;;;;4.10;76.08;95967.97;5079246;28;20060;-80
2022/01/31 11:07:26;;;;;;;3.72;1.63;;;;;;;4.11;75.73;95967.03;5080251;28;20048;-79
2022/01/31 11:09:55;;;;;;;2.85;1.65;;;;;;;4.13;75.64;95956.50;5079023;28;20041;-79
2022/01/31 11:12:23;;;;;;;3.08;1.40;;;;;;;4.16;75.53;95945.09;5077865;28;20075;-77
2022/01/31 11:14:53;;;;;;;3.83;1.70;;;;;;;4.18;75.71;95948.31;5077739;28;20422;-77
2022/01/31 11:17:22;;;;;;;4.53;1.60;;;;;;;4.19;75.17;95962.84;5079737;28;20055;-78
2022/01/31 11:19:56;;;;;;;3.80;1.90;;;;;;;4.20;75.54;95936.03;5083653;28;20131;-78
2022/01/31 11:22:29;;;;;;;2.47;1.52;;;;;;;4.21;75.30;95953.16;5077271;28;20052;-79
2022/01/31 11:25:16;;;;;;;2.67;1.63;;;;;;;4.20;74.93;95946.38;5077583;28;20084;-78
2022/01/31 11:28:04;;;;;;;2.25;1.58;;;;;;;4.16;75.64;95947.69;5077810;28;20079;-77
2022/01/31 11:30:34;;;;;;;4.38;2.10;;;;;;;4.13;75.75;95948.78;5077671;28;20048;-76
2022/01/31 11:33:03;;;;;;;4.10;1.15;;;;;;;4.07;74.68;95950.22;5076346;28;20059;-77
2022/01/31 11:35:32;;;;;;;3.33;1.35;;;;;;;4.07;74.78;95945.06;5074673;28;20052;-77
2022/01/31 11:38:00;;;;;;;4.88;1.50;;;;;;;4.05;74.69;95941.03;5075948;28;20075;-79
2022/01/31 11:40:27;;;;;;;4.00;1.95;;;;;;;4.04;74.62;95931.66;5076250;28;20045;-77
2022/01/31 11:42:56;;;;;;;4.07;1.30;;;;;;;4.03;75.32;95940.38;5076521;28;20052;-78
2022/01/31 11:45:28;;;;;;;2.00;1.23;;;;;;;4.02;74.62;95949.88;5076580;28;20049;-77
2022/01/31 11:47:59;;;;;;;3.67;1.70;;;;;;;4.03;75.75;95932.63;5074509;28;20053;-77
2022/01/31 11:50:27;;;;;;;3.22;1.58;;;;;;;4.06;75.44;95927.16;5074350;28;20270;-78
2022/01/31 11:52:58;;;;;;;4.03;1.42;;;;;;;4.03;74.67;95933.44;5075369;28;20064;-79
2022/01/31 11:55:33;;;;;;;3.60;1.63;;;;;;;4.03;74.80;95924.88;5074086;28;20084;-76
2022/01/31 11:58:00;;;;;;;4.78;1.40;;;;;;;4.00;74.90;95930.34;5074198;28;20052;-77
2022/01/31 12:00:28;;;;;;;5.90;1.88;;;;;;;3.98;74.73;95921.97;5074429;28;20041;-78
2022/01/31 12:03:02;;;;;;;3.53;1.48;;;;;;;3.97;75.27;95916.00;5076334;28;20048;-78
2022/01/31 12:05:36;;;;;;;4.88;1.77;;;;;;;3.96;74.46;95919.56;5075873;28;20460;-78